Time;durP1;ratioP1;P1;durP2;ratioP2;P2;SDS_P1;SDS_P2;PMS_P1;PMS_P2;Temp;Humidity;BMP_temperature;BMP_pressure;BME280_temperature;BME280_humidity;BME280_pressure;Samples;Min_cycle;Max_cycle;Signal;HPM_P1;HPM_P2
2022/04/21 00:00:32;;;;;;;3.75;2.75;;;10.90;93.50;;;;;;5072133;28;20070;-79
2022/04/21 00:02:58;;;;;;;6.30;2.92;;;10.90;93.70;;;;;;5071811;28;20032;-79
2022/04/21 00:05:23;;;;;;;4.28;1.98;;;10.80;93.80;;;;;;5071554;28;20377;-78
2022/04/21 00:07:49;;;;;;;3.95;2.40;;;10.80;93.90;;;;;;5071752;28;20025;-79
2022/04/21 00:10:16;;;;;;;4.00;2.58;;;10.70;94.00;;;;;;5072064;28;20473;-78
2022/04/21 00:12:41;;;;;;;3.38;2.85;;;10.70;94.10;;;;;;5071467;28;20616;-79
2022/04/21 00:15:08;;;;;;;4.38;2.38;;;10.50;94.50;;;;;;5071115;28;20033;-79
2022/04/21 00:17:33;;;;;;;3.88;2.65;;;10.50;94.50;;;;;;5071075;28;20028;-78
2022/04/21 00:19:59;;;;;;;4.30;2.53;;;10.50;94.50;;;;;;5071906;28;20050;-77
2022/04/21 00:25:09;;;;;;;5.00;2.63;;;10.50;94.60;;;;;;5071731;28;20107;-77
2022/04/21 00:27:39;;;;;;;3.90;2.50;;;10.30;95.00;;;;;;5070532;28;20431;-79
2022/04/21 00:30:08;;;;;;;4.38;3.00;;;10.40;94.90;;;;;;5071664;28;20043;-78
2022/04/21 00:32:35;;;;;;;5.03;3.25;;;10.40;94.90;;;;;;5071245;28;20020;-79
2022/04/21 00:35:01;;;;;;;4.97;2.80;;;10.40;94.90;;;;;;5071492;28;20059;-78
2022/04/21 00:37:27;;;;;;;3.72;2.75;;;10.40;95.00;;;;;;5052811;28;20052;-80
2022/04/21 00:39:53;;;;;;;3.20;2.42;;;10.40;94.80;;;;;;5071854;28;20103;-80
2022/04/21 00:42:18;;;;;;;4.38;2.65;;;10.40;94.80;;;;;;5071506;28;20446;-77
2022/04/21 00:44:46;;;;;;;6.30;2.65;;;10.50;94.80;;;;;;5071434;28;20037;-77
2022/04/21 00:47:12;;;;;;;3.35;2.38;;;10.40;94.70;;;;;;5070711;28;20720;-79
2022/04/21 00:49:39;;;;;;;5.28;2.25;;;10.40;94.70;;;;;;5071139;28;20025;-76
2022/04/21 00:52:06;;;;;;;4.18;2.63;;;10.40;94.80;;;;;;5070900;28;20433;-79
2022/04/21 00:54:32;;;;;;;3.55;2.22;;;10.30;95.00;;;;;;5070952;28;20030;-80
2022/04/21 00:57:02;;;;;;;5.07;2.60;;;10.30;95.10;;;;;;5052518;28;20342;-77
2022/04/21 00:59:28;;;;;;;4.90;2.80;;;10.20;95.10;;;;;;5070643;28;20024;-79
2022/04/21 01:04:41;;;;;;;5.53;2.97;;;10.20;95.70;;;;;;5070800;28;20070;-78
2022/04/21 01:07:10;;;;;;;5.50;2.30;;;10.30;95.40;;;;;;5070111;28;20033;-78
2022/04/21 01:09:37;;;;;;;5.55;2.97;;;10.20;95.90;;;;;;5070764;28;20676;-79
2022/04/21 01:12:09;;;;;;;3.85;2.28;;;10.30;95.50;;;;;;5070514;28;20039;-76
2022/04/21 01:14:37;;;;;;;4.45;2.45;;;10.30;95.60;;;;;;5071028;28;20042;-78
2022/04/21 01:17:06;;;;;;;7.00;3.35;;;10.30;95.70;;;;;;5070070;28;20052;-80
2022/04/21 01:19:32;;;;;;;7.15;3.20;;;10.30;95.60;;;;;;5052790;28;20124;-76
2022/04/21 01:21:58;;;;;;;4.45;2.33;;;10.40;95.50;;;;;;5052251;28;20484;-77
2022/04/21 01:24:24;;;;;;;6.47;2.75;;;10.40;95.40;;;;;;5070708;28;20104;-76
2022/04/21 01:26:49;;;;;;;6.60;3.08;;;10.30;95.50;;;;;;5069934;28;20464;-78
2022/04/21 01:29:15;;;;;;;3.13;2.28;;;10.30;95.70;;;;;;5052776;28;20021;-76
2022/04/21 01:31:40;;;;;;;3.20;2.33;;;10.30;95.60;;;;;;5069969;28;20130;-79
2022/04/21 01:34:06;;;;;;;2.38;2.15;;;10.40;95.50;;;;;;5070681;28;20029;-79
2022/04/21 01:36:31;;;;;;;6.38;3.08;;;10.50;95.50;;;;;;5069537;28;20051;-77
2022/04/21 01:41:55;;;;;;;3.83;2.72;;;10.60;95.30;;;;;;5014655;28;20465;-80
2022/04/21 01:44:20;;;;;;;5.85;2.92;;;10.60;95.40;;;;;;5070521;28;20055;-79
2022/04/21 01:46:46;;;;;;;6.35;2.75;;;10.60;95.30;;;;;;5051519;28;20517;-79
2022/04/21 01:49:11;;;;;;;4.20;2.90;;;10.60;95.30;;;;;;5070563;28;20033;-78
2022/04/21 01:51:37;;;;;;;5.45;2.80;;;10.60;95.40;;;;;;5069403;28;20107;-79
2022/04/21 01:54:02;;;;;;;5.63;3.30;;;10.60;95.30;;;;;;5070760;28;20457;-78
2022/04/21 01:56:28;;;;;;;7.78;2.88;;;10.60;95.30;;;;;;5069685;28;20028;-77
2022/04/21 01:58:53;;;;;;;3.58;2.53;;;10.60;95.30;;;;;;5070194;28;20056;-78
2022/04/21 02:01:19;;;;;;;3.78;2.53;;;10.60;95.20;;;;;;5070040;28;20025;-80
2022/04/21 02:03:44;;;;;;;7.95;3.17;;;10.70;95.20;;;;;;5070422;28;20460;-78
2022/04/21 02:06:12;;;;;;;4.15;2.67;;;10.60;95.20;;;;;;5069802;28;20028;-78
2022/04/21 02:08:37;;;;;;;3.40;2.47;;;10.70;95.20;;;;;;5070084;28;20136;-80
2022/04/21 02:11:03;;;;;;;5.13;2.47;;;10.70;95.10;;;;;;5069900;28;20108;-81
2022/04/21 02:13:28;;;;;;;3.15;2.22;;;10.80;95.10;;;;;;5070156;28;20024;-77
2022/04/21 02:15:54;;;;;;;4.40;2.70;;;10.70;95.20;;;;;;5069670;28;20102;-80
2022/04/21 02:18:19;;;;;;;6.18;4.07;;;10.70;95.20;;;;;;5070243;28;20024;-78
2022/04/21 02:20:45;;;;;;;4.88;2.30;;;10.70;95.20;;;;;;5069491;28;20020;-79
2022/04/21 02:23:11;;;;;;;4.70;2.88;;;10.60;95.60;;;;;;5070063;28;20032;-78
2022/04/21 02:25:36;;;;;;;6.68;2.72;;;10.60;95.60;;;;;;5051536;28;20032;-80
2022/04/21 02:28:02;;;;;;;6.53;3.00;;;10.60;95.50;;;;;;5070080;28;20100;-79
2022/04/21 02:30:27;;;;;;;10.45;2.67;;;10.60;95.50;;;;;;5069825;28;20028;-78
2022/04/21 02:32:53;;;;;;;5.88;3.08;;;10.60;95.60;;;;;;5069447;28;20028;-79
2022/04/21 02:35:18;;;;;;;4.05;2.40;;;10.60;95.60;;;;;;5069143;28;20345;-79
2022/04/21 02:37:46;;;;;;;8.65;3.47;;;10.60;95.70;;;;;;5070930;28;20021;-77
2022/04/21 02:40:13;;;;;;;6.10;2.80;;;10.60;95.70;;;;;;5073985;28;20025;-79
2022/04/21 02:42:39;;;;;;;4.28;2.28;;;10.60;95.70;;;;;;5055478;28;20029;-78
2022/04/21 02:45:09;;;;;;;4.10;2.45;;;10.60;95.70;;;;;;5055625;28;20070;-81
2022/04/21 02:47:36;;;;;;;4.93;3.03;;;10.70;95.70;;;;;;5073141;28;20033;-80
2022/04/21 02:50:03;;;;;;;2.63;2.35;;;10.60;95.70;;;;;;5073479;28;20020;-80
2022/04/21 02:52:29;;;;;;;4.70;2.83;;;10.70;95.70;;;;;;5073151;28;20083;-81
2022/04/21 02:57:38;;;;;;;5.60;2.97;;;10.70;95.60;;;;;;5072870;28;20031;-78
2022/04/21 03:00:06;;;;;;;4.15;2.53;;;10.70;95.60;;;;;;5073244;28;20071;-79
2022/04/21 03:02:32;;;;;;;6.35;3.17;;;10.70;95.60;;;;;;5073003;28;20094;-78
2022/04/21 03:04:57;;;;;;;4.13;2.38;;;10.70;95.60;;;;;;5073365;28;20570;-78
2022/04/21 03:07:24;;;;;;;5.50;3.00;;;10.70;95.70;;;;;;5072163;28;20504;-77
2022/04/21 03:09:50;;;;;;;4.75;2.70;;;10.70;95.80;;;;;;5073228;28;20036;-77
2022/04/21 03:12:15;;;;;;;6.47;3.00;;;10.60;95.80;;;;;;5054861;28;20465;-78
2022/04/21 03:14:42;;;;;;;5.18;2.83;;;10.60;96.10;;;;;;5073077;28;20037;-80
2022/04/21 03:17:09;;;;;;;4.60;2.65;;;10.60;96.00;;;;;;5072322;28;20021;-79
2022/04/21 03:19:35;;;;;;;3.80;2.33;;;10.60;96.20;;;;;;5072683;28;20029;-79
2022/04/21 03:24:45;;;;;;;6.93;3.30;;;10.70;95.90;;;;;;5073307;28;20051;-79
2022/04/21 03:27:10;;;;;;;4.00;3.00;;;10.60;95.90;;;;;;5054199;28;20441;-78
2022/04/21 03:29:39;;;;;;;5.72;2.78;;;10.70;95.90;;;;;;5072809;28;20025;-79
2022/04/21 03:32:09;;;;;;;9.43;2.80;;;10.70;95.90;;;;;;5072368;28;20096;-77
2022/04/21 03:34:37;;;;;;;11.65;2.88;;;10.70;95.90;;;;;;5054733;28;20048;-80
2022/04/21 03:37:02;;;;;;;5.30;2.58;;;10.50;96.50;;;;;;5072191;28;20051;-81
2022/04/21 03:39:28;;;;;;;7.80;2.92;;;10.50;96.30;;;;;;5054712;28;20421;-77
2022/04/21 03:41:53;;;;;;;6.35;3.20;;;10.50;96.40;;;;;;5072122;28;20457;-80
2022/04/21 03:44:22;;;;;;;6.72;3.28;;;10.50;96.40;;;;;;5072685;28;20052;-78
2022/04/21 03:46:48;;;;;;;5.30;3.28;;;10.30;96.80;;;;;;5071372;28;20154;-80
2022/04/21 03:49:13;;;;;;;6.88;3.13;;;10.20;96.90;;;;;;5071284;28;20103;-77
2022/04/21 03:51:39;;;;;;;3.28;2.47;;;10.30;96.90;;;;;;5072022;28;20040;-79
2022/04/21 03:54:04;;;;;;;6.43;2.83;;;10.30;96.80;;;;;;5072375;28;20099;-76
2022/04/21 03:56:30;;;;;;;4.55;3.03;;;10.40;96.80;;;;;;5071851;28;20020;-80
2022/04/21 03:58:57;;;;;;;4.47;2.92;;;10.40;96.70;;;;;;5072137;28;20052;-80
2022/04/21 04:01:22;;;;;;;7.25;3.13;;;10.40;96.70;;;;;;5054008;28;20031;-78
2022/04/21 04:03:48;;;;;;;5.53;2.95;;;10.40;96.60;;;;;;5072130;28;20103;-79
2022/04/21 04:11:42;;;;;;;5.63;2.78;;;10.30;96.80;;;;;;5071617;28;20105;-80
2022/04/21 04:14:08;;;;;;;4.57;3.17;;;10.30;96.70;;;;;;5072494;28;20032;-79
2022/04/21 04:16:34;;;;;;;4.13;3.13;;;10.30;96.80;;;;;;5071260;28;20021;-79
2022/04/21 04:19:00;;;;;;;3.20;2.60;;;10.20;96.90;;;;;;5071833;28;20468;-80
2022/04/21 04:21:26;;;;;;;7.43;2.72;;;10.20;96.80;;;;;;5071536;28;20099;-80
2022/04/21 04:23:51;;;;;;;5.20;3.10;;;10.20;96.80;;;;;;5071841;28;20237;-78
2022/04/21 04:26:16;;;;;;;6.13;2.80;;;10.20;96.80;;;;;;5071174;28;20105;-78
2022/04/21 04:28:42;;;;;;;7.05;3.10;;;10.30;96.70;;;;;;5071747;28;20024;-78
2022/04/21 04:31:08;;;;;;;3.65;2.50;;;10.30;96.70;;;;;;5071423;28;20037;-78
2022/04/21 04:33:34;;;;;;;4.00;3.30;;;10.40;96.50;;;;;;5071625;28;20036;-78
2022/04/21 04:36:00;;;;;;;5.80;3.58;;;10.40;96.70;;;;;;5070774;28;20048;-77
2022/04/21 04:38:26;;;;;;;5.90;2.95;;;10.40;96.40;;;;;;5071564;28;20461;-77
2022/04/21 04:40:51;;;;;;;5.30;2.72;;;10.30;96.40;;;;;;5071271;28;20107;-77
2022/04/21 04:43:17;;;;;;;7.43;3.05;;;10.30;96.40;;;;;;5070265;28;20072;-78
2022/04/21 04:48:26;;;;;;;6.13;2.78;;;10.30;96.30;;;;;;5071407;28;20051;-78
2022/04/21 04:50:52;;;;;;;4.45;2.72;;;10.30;96.20;;;;;;5071185;28;20028;-77
2022/04/21 04:53:17;;;;;;;5.65;2.67;;;10.40;96.20;;;;;;5070016;28;20037;-79
2022/04/21 04:55:43;;;;;;;3.92;2.47;;;10.40;96.10;;;;;;5070713;28;20035;-79
2022/04/21 04:58:08;;;;;;;4.20;2.50;;;10.50;96.10;;;;;;5071209;28;20107;-76
2022/04/21 05:00:34;;;;;;;4.72;2.45;;;10.50;96.00;;;;;;5070702;28;20024;-79
2022/04/21 05:02:59;;;;;;;4.88;2.47;;;10.40;96.20;;;;;;5070895;28;20029;-79
2022/04/21 05:05:25;;;;;;;4.03;2.40;;;10.40;96.10;;;;;;5070893;28;20082;-77
2022/04/21 05:07:50;;;;;;;4.90;2.25;;;10.40;96.00;;;;;;5070797;28;20047;-80
2022/04/21 05:10:18;;;;;;;4.82;3.03;;;10.50;95.70;;;;;;5071155;28;20082;-80
2022/04/21 05:12:44;;;;;;;6.00;2.72;;;10.30;95.50;;;;;;5070738;28;20025;-78
2022/04/21 05:15:09;;;;;;;3.08;2.60;;;10.30;95.70;;;;;;5070679;28;20514;-79
2022/04/21 05:17:35;;;;;;;5.47;2.88;;;10.40;95.60;;;;;;5070194;28;20546;-78
2022/04/21 05:20:01;;;;;;;3.75;2.17;;;10.40;95.50;;;;;;5070855;28;20016;-78
2022/04/21 05:22:37;;;;;;;3.22;2.15;;;10.40;95.30;;;;;;5070239;28;20119;-79
2022/04/21 05:25:08;;;;;;;7.03;2.83;;;10.50;95.20;;;;;;5053021;28;20035;-80
2022/04/21 05:27:34;;;;;;;4.78;2.35;;;10.50;94.80;;;;;;5052054;28;20460;-78
2022/04/21 05:32:48;;;;;;;6.93;2.20;;;10.40;94.40;;;;;;5070385;28;20094;-80
2022/04/21 05:35:15;;;;;;;5.45;2.80;;;10.30;94.20;;;;;;5070262;28;20020;-79
2022/04/21 05:37:41;;;;;;;6.13;2.78;;;10.30;94.20;;;;;;5070118;28;20070;-78
2022/04/21 05:40:07;;;;;;;5.82;2.38;;;10.30;94.30;;;;;;5070338;28;20769;-79
2022/04/21 05:42:35;;;;;;;5.30;2.20;;;10.10;94.40;;;;;;5070071;28;20029;-79
2022/04/21 05:45:02;;;;;;;3.95;2.70;;;10.10;94.30;;;;;;5070531;28;20016;-79
2022/04/21 05:47:27;;;;;;;6.60;2.35;;;10.20;94.30;;;;;;5069765;28;20020;-78
2022/04/21 05:49:53;;;;;;;5.03;3.20;;;10.20;94.30;;;;;;5070269;28;20024;-78
2022/04/21 05:52:23;;;;;;;6.35;3.03;;;10.30;94.10;;;;;;5070116;28;20112;-81
2022/04/21 05:54:49;;;;;;;4.47;2.90;;;10.40;94.10;;;;;;5070418;28;20115;-79
2022/04/21 05:57:14;;;;;;;5.00;1.90;;;10.40;93.90;;;;;;5070069;28;20417;-79
2022/04/21 05:59:40;;;;;;;3.58;1.80;;;10.50;94.00;;;;;;5052190;28;20051;-77
2022/04/21 06:02:07;;;;;;;3.55;1.80;;;10.50;93.70;;;;;;5070215;28;20051;-80
2022/04/21 06:04:32;;;;;;;7.05;1.90;;;10.50;93.70;;;;;;5069113;28;20368;-79
2022/04/21 06:06:58;;;;;;;5.63;2.17;;;10.60;93.80;;;;;;5069549;28;20027;-79
2022/04/21 06:09:24;;;;;;;10.18;2.20;;;10.60;93.90;;;;;;5069185;28;20032;-80
2022/04/21 06:11:49;;;;;;;4.05;2.03;;;10.70;93.80;;;;;;5069976;28;20373;-79
2022/04/21 06:14:15;;;;;;;2.58;1.85;;;10.70;93.70;;;;;;5074475;28;20055;-80
2022/04/21 06:16:41;;;;;;;3.70;2.00;;;10.60;93.50;;;;;;5073745;28;20062;-80
2022/04/21 06:19:06;;;;;;;2.67;1.95;;;10.60;93.40;;;;;;5074719;28;20053;-78
2022/04/21 06:21:32;;;;;;;6.00;2.22;;;10.60;93.30;;;;;;5073669;28;20089;-79
2022/04/21 06:23:58;;;;;;;2.70;1.98;;;10.60;93.20;;;;;;5074319;28;20020;-80
2022/04/21 06:26:25;;;;;;;2.08;1.27;;;10.60;93.20;;;;;;5073485;28;20029;-78
2022/04/21 06:28:51;;;;;;;4.60;1.80;;;10.60;93.10;;;;;;5074398;28;20461;-79
2022/04/21 06:31:17;;;;;;;11.20;2.58;;;10.60;93.20;;;;;;5073994;28;20060;-81
2022/04/21 06:33:42;;;;;;;4.38;2.22;;;10.60;93.30;;;;;;5073816;28;20063;-77
2022/04/21 06:36:08;;;;;;;4.05;2.05;;;10.60;93.20;;;;;;5073560;28;20079;-77
2022/04/21 06:38:33;;;;;;;4.22;1.92;;;10.60;93.30;;;;;;5073826;28;20052;-80
2022/04/21 06:40:59;;;;;;;5.05;2.22;;;10.50;93.30;;;;;;5073977;28;20047;-80
2022/04/21 06:48:52;;;;;;;3.35;2.25;;;10.60;93.50;;;;;;5073900;28;20145;-80
2022/04/21 06:51:18;;;;;;;2.85;2.00;;;10.70;93.80;;;;;;5055526;28;20024;-78
2022/04/21 06:53:44;;;;;;;7.03;1.80;;;10.70;94.00;;;;;;5073383;28;20024;-79
2022/04/21 06:56:13;;;;;;;4.93;2.85;;;10.70;94.00;;;;;;5072908;28;20655;-80
2022/04/21 06:58:40;;;;;;;4.82;2.15;;;10.70;94.20;;;;;;5055176;28;20024;-81
2022/04/21 07:01:05;;;;;;;8.13;2.80;;;10.70;94.30;;;;;;5073166;28;20020;-77
2022/04/21 07:03:31;;;;;;;4.55;2.60;;;10.70;94.70;;;;;;5071866;28;20036;-77
2022/04/21 07:05:56;;;;;;;6.13;2.72;;;10.70;94.10;;;;;;5072658;28;20119;-80
2022/04/21 07:08:23;;;;;;;4.78;2.90;;;10.50;94.40;;;;;;5073222;28;20025;-79
2022/04/21 07:10:49;;;;;;;4.63;2.30;;;10.60;94.40;;;;;;5073172;28;20037;-80
2022/04/21 07:13:15;;;;;;;4.30;2.60;;;10.60;94.20;;;;;;5055583;28;20024;-80
2022/04/21 07:15:40;;;;;;;5.00;2.90;;;10.60;94.00;;;;;;5072590;28;20082;-78
2022/04/21 07:18:06;;;;;;;6.05;2.50;;;10.60;94.10;;;;;;5073429;28;20031;-79
2022/04/21 07:20:32;;;;;;;5.90;2.90;;;10.60;94.10;;;;;;5072900;28;20036;-81
2022/04/21 07:22:58;;;;;;;5.40;2.45;;;10.60;93.20;;;;;;5072697;28;20024;-80
2022/04/21 07:25:23;;;;;;;5.45;2.70;;;10.60;93.70;;;;;;5072354;28;20025;-78
2022/04/21 07:27:49;;;;;;;6.72;2.97;;;10.60;93.80;;;;;;5072894;28;20016;-78
2022/04/21 07:30:14;;;;;;;5.30;2.60;;;10.70;93.70;;;;;;5072821;28;20033;-80
2022/04/21 07:32:40;;;;;;;9.80;2.78;;;10.80;93.20;;;;;;5072405;28;20028;-78
2022/04/21 07:35:06;;;;;;;5.38;2.42;;;10.90;93.30;;;;;;5054695;28;20358;-79
2022/04/21 07:37:33;;;;;;;7.43;2.30;;;10.90;92.90;;;;;;5072037;28;20032;-79
2022/04/21 07:39:58;;;;;;;6.47;2.90;;;11.10;92.50;;;;;;5072997;28;20027;-79
2022/04/21 07:42:24;;;;;;;5.40;2.63;;;11.10;92.60;;;;;;5072215;28;20111;-80
2022/04/21 07:44:51;;;;;;;6.65;2.65;;;11.20;92.90;;;;;;5072889;28;20038;-79
2022/04/21 07:47:16;;;;;;;4.93;2.53;;;11.20;92.10;;;;;;5071020;28;20109;-78
2022/04/21 07:49:45;;;;;;;4.80;2.78;;;11.20;92.40;;;;;;5083756;28;20361;-80
2022/04/21 07:55:13;;;;;;;6.35;2.72;;;11.30;92.80;;;;;;5093206;28;20329;-79
2022/04/21 07:57:40;;;;;;;7.55;2.63;;;11.20;92.10;;;;;;5092401;28;20435;-79
2022/04/21 08:00:06;;;;;;;5.00;2.97;;;11.10;92.40;;;;;;5092973;28;20017;-80
2022/04/21 08:02:32;;;;;;;8.00;2.85;;;11.10;92.70;;;;;;5092429;28;20113;-81
2022/04/21 08:04:58;;;;;;;5.43;2.97;;;11.10;92.30;;;;;;5074724;28;20070;-79
2022/04/21 08:07:23;;;;;;;6.45;3.17;;;11.20;92.60;;;;;;5091940;28;20024;-80
2022/04/21 08:09:49;;;;;;;4.80;3.17;;;11.10;92.40;;;;;;5092815;28;20042;-79
2022/04/21 08:12:14;;;;;;;5.35;2.70;;;11.20;92.10;;;;;;5092334;28;20028;-77
2022/04/21 08:14:40;;;;;;;4.05;2.70;;;11.10;92.20;;;;;;5092377;28;20036;-80
2022/04/21 08:17:06;;;;;;;6.55;3.00;;;11.20;92.60;;;;;;5092015;28;20047;-78
2022/04/21 08:19:32;;;;;;;3.90;2.50;;;11.20;92.20;;;;;;5092484;28;20020;-79
2022/04/21 08:21:57;;;;;;;7.60;3.08;;;11.10;92.10;;;;;;5092509;28;20036;-80
2022/04/21 08:32:41;;;;;;;4.82;3.22;;;10.90;92.80;;;;;;5091756;28;20533;-77
2022/04/21 08:35:07;;;;;;;4.93;3.28;;;11.10;93.00;;;;;;5091170;28;20024;-80
2022/04/21 08:37:36;;;;;;;4.18;2.50;;;11.10;92.70;;;;;;5090188;28;20028;-80
2022/04/21 08:40:06;;;;;;;7.03;2.75;;;11.10;92.50;;;;;;5091851;28;20016;-80
2022/04/21 08:42:39;;;;;;;3.65;2.22;;;11.00;92.80;;;;;;5091654;28;20079;-79
2022/04/21 08:45:08;;;;;;;3.75;2.65;;;11.10;92.60;;;;;;5092087;28;20024;-79
2022/04/21 08:47:35;;;;;;;10.45;3.08;;;11.10;92.60;;;;;;5091053;28;20053;-79
2022/04/21 08:50:11;;;;;;;5.78;3.03;;;11.10;92.40;;;;;;5091583;28;20027;-79
2022/04/21 08:52:37;;;;;;;4.22;2.78;;;11.20;92.50;;;;;;5091121;28;20112;-80
2022/04/21 08:55:03;;;;;;;6.75;2.97;;;11.20;92.50;;;;;;5073378;28;20368;-78
2022/04/21 08:57:30;;;;;;;5.57;3.08;;;11.30;92.40;;;;;;5072531;28;20508;-79
2022/04/21 08:59:57;;;;;;;4.25;2.83;;;11.30;92.30;;;;;;5091370;28;20027;-81
2022/04/21 09:02:44;;;;;;;8.13;3.00;;;11.30;92.30;;;;;;5091227;28;20024;-78
2022/04/21 09:05:10;;;;;;;7.43;3.67;;;11.30;92.50;;;;;;5091006;28;20487;-79
2022/04/21 09:07:46;;;;;;;7.43;3.20;;;11.40;92.60;;;;;;5090986;28;20022;-79
2022/04/21 09:10:14;;;;;;;4.32;2.55;;;11.50;92.20;;;;;;5091402;28;20032;-79
2022/04/21 09:12:43;;;;;;;8.68;3.28;;;11.50;92.30;;;;;;5090984;28;20065;-80
2022/04/21 09:15:14;;;;;;;5.43;2.80;;;11.50;92.30;;;;;;5073293;28;20534;-80
2022/04/21 09:17:56;;;;;;;5.75;2.63;;;11.50;92.10;;;;;;5072736;28;20030;-81
2022/04/21 09:20:25;;;;;;;4.68;3.08;;;11.50;92.20;;;;;;5073235;28;20032;-80
2022/04/21 09:22:55;;;;;;;8.27;3.85;;;11.40;92.80;;;;;;5090931;28;20655;-77
2022/04/21 09:25:26;;;;;;;5.78;3.67;;;11.40;92.50;;;;;;5090550;28;20031;-81
2022/04/21 09:27:52;;;;;;;4.22;2.72;;;11.50;92.60;;;;;;5091085;28;20105;-79
2022/04/21 09:30:19;;;;;;;4.28;2.92;;;11.60;92.60;;;;;;5091109;28;20027;-78
2022/04/21 09:32:52;;;;;;;8.80;2.72;;;11.70;92.40;;;;;;5090550;28;20027;-79
2022/04/21 09:35:18;;;;;;;7.80;3.67;;;11.80;92.10;;;;;;5072354;28;20035;-80
2022/04/21 09:37:46;;;;;;;5.53;2.90;;;11.60;92.10;;;;;;5090700;28;20102;-77
2022/04/21 09:40:12;;;;;;;5.20;3.00;;;11.60;92.30;;;;;;5072842;28;20024;-80
2022/04/21 09:42:37;;;;;;;6.70;3.03;;;11.60;92.20;;;;;;5090443;28;20056;-80
2022/04/21 09:47:51;;;;;;;6.10;3.45;;;11.70;92.10;;;;;;5090883;28;20031;-76
2022/04/21 09:50:17;;;;;;;5.95;3.25;;;11.60;92.50;;;;;;5073185;28;20028;-80
2022/04/21 09:52:50;;;;;;;7.28;3.38;;;11.70;92.30;;;;;;5090520;28;20183;-78
2022/04/21 09:55:32;;;;;;;11.05;3.40;;;11.80;92.50;;;;;;5091529;28;20077;-80
2022/04/21 09:58:06;;;;;;;8.32;3.30;;;11.90;92.10;;;;;;5091226;28;20124;-79
2022/04/21 10:00:33;;;;;;;4.63;3.15;;;11.90;92.40;;;;;;5090623;28;20016;-80
2022/04/21 10:03:00;;;;;;;7.70;3.95;;;11.90;92.70;;;;;;5090482;28;20032;-82
2022/04/21 10:05:25;;;;;;;8.88;3.72;;;12.00;92.10;;;;;;5090151;28;20345;-79
2022/04/21 10:07:53;;;;;;;4.78;3.08;;;12.10;92.20;;;;;;5090894;28;20110;-77
2022/04/21 10:10:18;;;;;;;10.07;4.65;;;12.20;91.90;;;;;;5091318;28;20108;-80
2022/04/21 10:12:44;;;;;;;7.28;3.20;;;12.20;91.80;;;;;;5090320;28;20064;-79
2022/04/21 10:15:10;;;;;;;10.60;3.38;;;12.30;92.00;;;;;;5090745;28;20024;-81
2022/04/21 10:17:37;;;;;;;5.50;3.85;;;12.30;91.80;;;;;;5090161;28;20027;-82
2022/04/21 10:20:03;;;;;;;5.50;3.17;;;12.50;91.70;;;;;;5090639;28;20032;-79
2022/04/21 10:22:33;;;;;;;6.72;3.45;;;12.60;91.30;;;;;;5090485;28;20077;-81
2022/04/21 10:24:58;;;;;;;7.32;3.22;;;12.70;91.10;;;;;;5091015;28;20095;-80
2022/04/21 10:27:47;;;;;;;6.00;3.80;;;12.80;90.90;;;;;;5090584;28;20108;-80
2022/04/21 10:30:14;;;;;;;6.95;4.30;;;12.90;91.30;;;;;;5090423;28;20020;-79
2022/04/21 10:32:59;;;;;;;6.45;3.92;;;13.00;90.90;;;;;;5089949;28;20036;-80
2022/04/21 10:35:24;;;;;;;9.85;4.25;;;12.90;90.70;;;;;;5089798;28;20544;-80
2022/04/21 10:38:14;;;;;;;7.03;3.85;;;12.90;91.10;;;;;;5090258;28;20016;-79
2022/04/21 10:41:02;;;;;;;7.25;5.05;;;13.00;91.40;;;;;;5071919;28;20016;-79
2022/04/21 10:43:50;;;;;;;9.25;4.32;;;13.00;91.30;;;;;;5090357;28;20020;-79
2022/04/21 10:46:26;;;;;;;11.70;4.57;;;12.90;90.90;;;;;;5089627;28;20029;-79
2022/04/21 10:48:53;;;;;;;8.35;4.30;;;12.70;91.50;;;;;;5090187;28;20073;-77
2022/04/21 10:57:34;;;;;;;10.55;4.97;;;12.80;91.50;;;;;;5089354;28;20481;-79
2022/04/21 11:00:05;;;;;;;8.95;6.03;;;12.90;91.60;;;;;;5093273;28;20040;-78
2022/04/21 11:02:44;;;;;;;13.15;6.40;;;12.90;91.70;;;;;;5075127;28;20036;-79
2022/04/21 11:05:22;;;;;;;17.20;7.22;;;12.90;91.80;;;;;;5093816;28;20032;-78
2022/04/21 11:07:58;;;;;;;9.93;5.68;;;12.70;92.10;;;;;;5093706;28;20035;-78
2022/04/21 11:10:38;;;;;;;10.90;6.65;;;12.60;92.40;;;;;;5075693;28;20032;-78
2022/04/21 11:13:06;;;;;;;13.00;6.28;;;12.50;92.60;;;;;;5093425;28;20024;-79
2022/04/21 11:15:44;;;;;;;11.50;6.85;;;12.40;92.70;;;;;;5092907;28;20067;-80
2022/04/21 11:18:11;;;;;;;14.45;6.80;;;12.30;93.10;;;;;;5093630;28;20035;-79
2022/04/21 11:20:41;;;;;;;11.75;7.05;;;12.20;93.30;;;;;;5075272;28;20016;-79
2022/04/21 11:23:22;;;;;;;11.70;6.78;;;12.30;93.20;;;;;;5075200;28;20024;-80
2022/04/21 11:25:50;;;;;;;9.90;6.45;;;12.30;93.20;;;;;;5091440;28;20056;-77
2022/04/21 11:28:23;;;;;;;11.02;6.65;;;12.40;93.40;;;;;;5093435;28;20036;-78
2022/04/21 11:30:56;;;;;;;9.80;6.47;;;12.50;93.20;;;;;;5093012;28;20024;-77
2022/04/21 11:33:22;;;;;;;11.30;6.85;;;12.60;93.10;;;;;;5093139;28;20042;-78
2022/04/21 11:35:48;;;;;;;15.43;7.60;;;12.70;93.00;;;;;;5074490;28;20032;-79
2022/04/21 11:38:14;;;;;;;12.00;6.38;;;12.50;93.30;;;;;;5093177;28;20022;-79
2022/04/21 11:40:40;;;;;;;15.07;6.63;;;12.40;93.50;;;;;;5092855;28;20032;-78
2022/04/21 11:43:11;;;;;;;10.52;6.38;;;12.40;93.50;;;;;;5093115;28;20077;-80
2022/04/21 11:45:40;;;;;;;16.40;7.85;;;12.20;94.10;;;;;;5074101;28;20105;-81
2022/04/21 11:48:12;;;;;;;12.18;6.45;;;12.30;94.00;;;;;;5093280;28;20102;-77
2022/04/21 11:50:41;;;;;;;12.40;7.63;;;12.40;93.90;;;;;;5092705;28;20020;-78
2022/04/21 11:53:20;;;;;;;13.70;7.45;;;12.30;94.00;;;;;;5092808;28;20551;-80
2022/04/21 11:55:46;;;;;;;12.82;6.60;;;12.10;94.40;;;;;;5091996;28;20029;-79
2022/04/21 11:58:12;;;;;;;15.38;6.50;;;12.00;94.50;;;;;;5092759;28;20456;-80
2022/04/21 12:08:51;;;;;;;12.23;7.80;;;12.00;95.10;;;;;;5092617;28;20359;-79
2022/04/21 12:11:18;;;;;;;10.77;7.05;;;12.10;95.00;;;;;;5091285;28;20019;-79
2022/04/21 12:13:46;;;;;;;15.00;8.32;;;12.20;94.90;;;;;;5092244;28;20024;-78
2022/04/21 12:16:46;;;;;;;14.57;7.55;;;12.20;94.90;;;;;;5091744;28;20049;-78
2022/04/21 12:19:32;;;;;;;20.95;8.35;;;12.00;95.30;;;;;;5092226;28;20543;-79
2022/04/21 12:22:10;;;;;;;16.77;8.40;;;12.10;95.40;;;;;;5091966;28;20049;-79
2022/04/21 12:24:44;;;;;;;18.45;7.82;;;12.10;95.20;;;;;;5092246;28;20023;-77
2022/04/21 12:27:20;;;;;;;14.27;8.63;;;11.90;95.60;;;;;;5091384;28;20043;-79
2022/04/21 12:29:56;;;;;;;16.25;9.20;;;12.00;95.60;;;;;;5092139;28;20032;-80
2022/04/21 12:32:29;;;;;;;18.17;9.02;;;11.80;95.80;;;;;;5091893;28;20031;-77
2022/04/21 12:34:58;;;;;;;16.92;8.15;;;11.80;95.80;;;;;;5092109;28;20103;-79
2022/04/21 12:37:34;;;;;;;16.15;8.18;;;11.90;95.70;;;;;;5091142;28;20096;-78
2022/04/21 12:40:04;;;;;;;14.88;8.15;;;11.80;95.80;;;;;;5092165;28;20020;-80
2022/04/21 12:42:30;;;;;;;15.73;9.25;;;11.80;96.00;;;;;;5073238;28;20067;-79
2022/04/21 12:44:55;;;;;;;21.17;9.50;;;11.90;95.90;;;;;;5092118;28;20063;-79
2022/04/21 12:47:22;;;;;;;17.25;8.27;;;11.80;96.00;;;;;;5091270;28;20421;-81
2022/04/21 12:49:55;;;;;;;14.18;9.50;;;11.70;96.40;;;;;;5091757;28;20036;-78
2022/04/21 12:52:32;;;;;;;18.92;8.32;;;11.40;96.80;;;;;;5090197;28;20444;-80
2022/04/21 12:54:59;;;;;;;15.10;8.80;;;11.30;97.20;;;;;;5091707;28;20457;-79
2022/04/21 12:57:25;;;;;;;17.30;9.43;;;11.40;97.30;;;;;;5091081;28;20048;-79
2022/04/21 12:59:51;;;;;;;20.35;10.93;;;11.40;97.30;;;;;;5091753;28;20024;-79
2022/04/21 13:02:18;;;;;;;16.85;8.77;;;11.30;97.60;;;;;;5091654;28;20050;-81
2022/04/21 13:04:44;;;;;;;17.77;9.77;;;11.40;97.60;;;;;;5091652;28;20085;-79
2022/04/21 13:07:10;;;;;;;19.92;10.80;;;11.60;97.50;;;;;;5091004;28;20415;-79
2022/04/21 13:09:35;;;;;;;18.88;10.57;;;11.70;97.30;;;;;;5091513;28;20036;-79
2022/04/21 13:12:01;;;;;;;19.13;11.02;;;11.70;97.10;;;;;;5091107;28;20464;-80
2022/04/21 13:14:27;;;;;;;22.75;11.57;;;11.80;97.10;;;;;;5091382;28;20077;-79
2022/04/21 13:16:53;;;;;;;24.15;11.45;;;11.90;96.90;;;;;;5090740;28;20016;-79
2022/04/21 13:19:18;;;;;;;22.70;12.65;;;11.90;96.70;;;;;;5073326;28;20024;-79
2022/04/21 13:21:53;;;;;;;29.73;11.32;;;11.90;96.80;;;;;;5072523;28;20169;-81
2022/04/21 13:24:21;;;;;;;17.40;10.25;;;12.00;96.80;;;;;;5091741;28;20020;-78
2022/04/21 13:26:47;;;;;;;18.17;11.80;;;12.10;96.70;;;;;;5090989;28;20942;-80
2022/04/21 13:29:13;;;;;;;20.75;11.68;;;12.20;96.70;;;;;;5092374;28;20020;-80
2022/04/21 13:34:22;;;;;;;20.88;10.88;;;12.20;96.90;;;;;;5091392;28;20491;-79
2022/04/21 13:36:48;;;;;;;17.40;11.57;;;12.00;97.30;;;;;;5090365;28;20040;-79
2022/04/21 13:39:15;;;;;;;21.92;9.85;;;11.90;97.30;;;;;;5091100;28;20098;-79
2022/04/21 13:41:41;;;;;;;20.65;11.32;;;12.00;97.30;;;;;;5090406;28;20138;-81
2022/04/21 13:44:06;;;;;;;17.30;11.20;;;11.80;97.50;;;;;;5090971;28;20067;-79
2022/04/21 13:46:34;;;;;;;18.70;11.02;;;11.70;97.90;;;;;;5071816;28;20031;-80